KSWO

Stillwater Regional Airport

Stillwater, Oklahoma, USA
METAR KSWO 160153Z AUTO 00000KT 10SM CLR 01/M06 A3018 RMK AO2 SLP225 T00111056 $
Observed Flight Rules
Dec-16 @ 01:53 UTC (16 minutes ago) Visual Flight Rules
Visibility Clouds
10 miles
  • Clear skies
Temperatures Readings
Current 1°C / 34°F
Dewpoint -6°C / 21°F
Humidity 60%
Altimeter 30.18" Hg
Pressure 1022.5 hPa
Elevation 290
METAR KSWO 160153Z AUTO 00000KT 10SM CLR 01/M06 A3018 RMK AO2 SLP225 T00111056 $
Observed Flight Rules
Dec-16 @ 01:53 UTC
(16 minutes ago)
VFR
Clouds
  • Clear skies
Temperature Dewpoint
1°C / 34°F -6°C / 21°F
Humidity Altimeter Pressure
60% 30.18" Hg 1022.5 hPa